createdAt,value
2022-08-26T00:02:12.609Z,15.83
2022-08-26T00:04:41.631Z,12.73
2022-08-26T00:07:12.083Z,13.90
2022-08-26T00:09:40.546Z,14.40
2022-08-26T00:12:12.373Z,13.40
2022-08-26T00:14:41.767Z,13.37
2022-08-26T00:17:10.307Z,13.27
2022-08-26T00:19:38.746Z,13.43
2022-08-26T00:22:07.278Z,13.27
2022-08-26T00:24:36.806Z,13.90
2022-08-26T00:27:06.461Z,14.50
2022-08-26T00:29:37.524Z,14.77
2022-08-26T00:32:06.803Z,15.20
2022-08-26T00:34:35.767Z,13.90
2022-08-26T00:37:04.564Z,14.30
2022-08-26T00:39:39.463Z,13.50
2022-08-26T00:42:08.599Z,14.40
2022-08-26T00:44:37.259Z,13.50
2022-08-26T00:47:10.631Z,15.87
2022-08-26T00:49:42.379Z,13.73
2022-08-26T00:52:14.620Z,15.50
2022-08-26T00:54:50.019Z,15.00
2022-08-26T00:57:19.894Z,15.57
2022-08-26T00:59:51.866Z,14.80
2022-08-26T01:02:21.482Z,17.23
2022-08-26T01:04:55.445Z,15.37
2022-08-26T01:07:27.434Z,15.47
2022-08-26T01:09:58.384Z,15.60
2022-08-26T01:12:30.236Z,13.77
2022-08-26T01:14:58.525Z,14.20
2022-08-26T01:17:26.938Z,14.40
2022-08-26T01:20:01.007Z,13.70
2022-08-26T01:22:35.201Z,14.23
2022-08-26T01:25:06.871Z,14.50
2022-08-26T01:27:36.803Z,13.07
2022-08-26T01:30:06.550Z,13.60
2022-08-26T01:32:36.284Z,13.77
2022-08-26T01:35:08.679Z,13.90
2022-08-26T01:37:40.432Z,13.20
2022-08-26T01:40:16.919Z,13.70
2022-08-26T01:42:46.957Z,12.60
2022-08-26T01:45:19.471Z,14.40
2022-08-26T01:47:49.774Z,15.33
2022-08-26T01:50:30.629Z,15.13
2022-08-26T01:53:02.336Z,14.20
2022-08-26T01:55:34.184Z,15.13
2022-08-26T01:58:06.178Z,14.00
2022-08-26T02:00:36.146Z,14.30
2022-08-26T02:03:18.287Z,13.83
2022-08-26T02:05:51.259Z,13.43
2022-08-26T02:08:24.874Z,13.77
2022-08-26T02:10:55.644Z,14.07
2022-08-26T02:13:27.362Z,13.07
2022-08-26T02:15:56.346Z,14.13
2022-08-26T02:18:25.776Z,14.60
2022-08-26T02:20:55.155Z,14.37
2022-08-26T02:23:24.059Z,14.70
2022-08-26T02:25:59.770Z,13.10
2022-08-26T02:28:31.928Z,13.57
2022-08-26T02:31:00.131Z,13.80
2022-08-26T02:33:30.911Z,15.70
2022-08-26T02:35:59.106Z,15.87
2022-08-26T02:38:27.752Z,14.13
2022-08-26T02:40:57.336Z,13.97
2022-08-26T02:43:31.554Z,13.50
2022-08-26T02:46:02.362Z,13.87
2022-08-26T02:48:31.404Z,16.13
2022-08-26T02:51:00.996Z,15.10
2022-08-26T02:53:32.070Z,15.77
2022-08-26T02:56:08.229Z,16.03
2022-08-26T02:58:36.769Z,13.87
2022-08-26T03:01:05.810Z,15.50
2022-08-26T03:03:34.946Z,15.90
2022-08-26T03:06:03.108Z,15.17
2022-08-26T03:08:31.275Z,15.40
2022-08-26T03:10:59.485Z,15.40
2022-08-26T03:13:31.532Z,15.10
2022-08-26T03:16:02.211Z,15.20
2022-08-26T03:18:30.436Z,15.90
2022-08-26T03:20:58.690Z,15.27
2022-08-26T03:23:26.859Z,15.47
2022-08-26T03:25:55.660Z,16.97
2022-08-26T03:28:24.242Z,15.73
2022-08-26T03:30:57.048Z,15.70
2022-08-26T03:33:26.606Z,15.43
2022-08-26T03:35:55.657Z,16.43
2022-08-26T03:38:26.095Z,14.23
2022-08-26T03:40:56.255Z,16.87
2022-08-26T03:43:26.853Z,15.33
2022-08-26T03:45:55.142Z,15.10
2022-08-26T03:48:24.649Z,17.00
2022-08-26T03:50:53.032Z,16.33
2022-08-26T03:53:21.616Z,16.80
2022-08-26T03:55:51.881Z,17.33
2022-08-26T03:58:20.867Z,16.60
2022-08-26T04:00:50.029Z,16.57
2022-08-26T04:03:40.098Z,17.03
2022-08-26T04:06:09.102Z,16.70
2022-08-26T04:08:38.527Z,16.73
2022-08-26T04:11:07.336Z,17.37
2022-08-26T04:13:35.893Z,17.63
2022-08-26T04:16:04.634Z,15.80
2022-08-26T04:18:37.300Z,16.50
2022-08-26T04:21:09.771Z,19.27
2022-08-26T04:23:46.955Z,16.97
2022-08-26T04:26:16.767Z,18.50
2022-08-26T04:28:45.062Z,17.00
2022-08-26T04:31:14.691Z,18.00
2022-08-26T04:33:46.635Z,17.57
2022-08-26T04:36:15.632Z,16.63
2022-08-26T04:38:45.771Z,16.30
2022-08-26T04:41:15.643Z,18.47
2022-08-26T04:43:46.630Z,16.60
2022-08-26T04:46:19.842Z,17.10
2022-08-26T04:48:51.012Z,17.20
2022-08-26T04:51:20.968Z,17.60
2022-08-26T04:53:49.236Z,17.67
2022-08-26T04:56:18.466Z,18.10
2022-08-26T04:58:46.622Z,16.50
2022-08-26T05:01:14.837Z,18.00
2022-08-26T05:03:43.494Z,18.00
2022-08-26T05:06:13.352Z,16.50
2022-08-26T05:08:41.629Z,18.20
2022-08-26T05:11:10.554Z,17.50
2022-08-26T05:13:39.615Z,18.27
2022-08-26T05:16:11.561Z,18.77
2022-08-26T05:18:43.489Z,20.53
2022-08-26T05:21:22.527Z,19.27
2022-08-26T05:23:52.351Z,20.50
2022-08-26T05:26:22.918Z,22.90
2022-08-26T05:28:54.742Z,18.60
2022-08-26T05:31:26.615Z,18.93
2022-08-26T05:33:55.991Z,19.30
2022-08-26T05:36:28.579Z,20.23
2022-08-26T05:38:58.114Z,19.87
2022-08-26T05:41:34.332Z,19.60
2022-08-26T05:44:07.327Z,20.23
2022-08-26T05:46:36.804Z,19.00
2022-08-26T05:49:12.456Z,21.30
2022-08-26T05:51:47.503Z,18.53
2022-08-26T05:54:21.770Z,19.93
2022-08-26T05:56:51.427Z,19.00
2022-08-26T05:59:21.407Z,21.50
2022-08-26T06:01:53.657Z,21.30
2022-08-26T06:04:23.109Z,20.03
2022-08-26T06:06:56.261Z,20.00
2022-08-26T06:09:24.886Z,20.60
2022-08-26T06:11:53.632Z,19.63
2022-08-26T06:14:22.982Z,23.27
2022-08-26T06:16:51.149Z,22.37
2022-08-26T06:19:19.382Z,21.30
2022-08-26T06:21:54.147Z,23.90
2022-08-26T06:24:41.957Z,21.00
2022-08-26T06:27:13.697Z,22.63
2022-08-26T06:29:42.593Z,22.07
2022-08-26T06:32:10.762Z,22.30
2022-08-26T06:34:39.206Z,24.70
2022-08-26T06:37:08.783Z,22.07
2022-08-26T06:39:41.081Z,20.33
2022-08-26T06:42:10.999Z,21.00
2022-08-26T06:44:41.190Z,20.87
2022-08-26T06:47:09.575Z,23.10
2022-08-26T06:49:38.149Z,21.83
2022-08-26T06:52:08.005Z,20.50
2022-08-26T06:54:43.034Z,20.30
2022-08-26T06:57:11.806Z,21.60
2022-08-26T06:59:40.162Z,20.63
2022-08-26T07:02:08.481Z,21.53
2022-08-26T07:04:36.804Z,21.67
2022-08-26T07:07:05.311Z,21.77
2022-08-26T07:09:35.364Z,22.20
2022-08-26T07:12:07.454Z,20.23
2022-08-26T07:14:35.877Z,21.27
2022-08-26T07:17:04.069Z,20.80
2022-08-26T07:19:32.268Z,19.70
2022-08-26T07:22:03.510Z,19.37
2022-08-26T07:24:32.992Z,20.10
2022-08-26T07:27:03.045Z,19.50
2022-08-26T07:29:36.219Z,20.40
2022-08-26T07:32:05.374Z,19.10
2022-08-26T07:34:33.687Z,19.77
2022-08-26T07:37:02.191Z,19.57
2022-08-26T07:39:32.817Z,19.93
2022-08-26T07:42:01.616Z,17.80
2022-08-26T07:44:37.265Z,16.40
2022-08-26T07:47:10.063Z,17.13
2022-08-26T07:49:52.916Z,18.63
2022-08-26T07:52:26.159Z,17.03
2022-08-26T07:54:55.730Z,16.83
2022-08-26T07:57:24.254Z,17.07
2022-08-26T07:59:55.557Z,15.40
2022-08-26T08:02:24.986Z,16.47
2022-08-26T08:04:54.525Z,16.53
2022-08-26T08:07:38.584Z,13.90
2022-08-26T08:10:14.328Z,14.47
2022-08-26T08:12:43.636Z,13.60
2022-08-26T08:15:14.378Z,13.77
2022-08-26T08:17:43.853Z,14.33
2022-08-26T08:20:14.193Z,13.47
2022-08-26T08:22:43.083Z,15.30
2022-08-26T08:25:12.410Z,12.67
2022-08-26T08:27:42.973Z,14.50
2022-08-26T08:30:13.783Z,13.07
2022-08-26T08:32:43.525Z,12.43
2022-08-26T08:35:13.420Z,13.03
2022-08-26T08:37:42.424Z,13.20
2022-08-26T08:40:18.267Z,12.03
2022-08-26T08:45:30.449Z,12.97
2022-08-26T08:48:02.144Z,10.33
2022-08-26T08:50:33.814Z,11.70
2022-08-26T08:53:10.762Z,11.60
2022-08-26T08:55:49.797Z,10.20
2022-08-26T08:58:21.793Z,10.53
2022-08-26T09:00:58.321Z,11.47
2022-08-26T09:03:41.657Z,10.13
2022-08-26T09:06:17.437Z,10.50
2022-08-26T09:08:50.044Z,11.47
2022-08-26T09:11:20.041Z,8.93
2022-08-26T09:13:51.260Z,9.33
2022-08-26T09:16:25.197Z,9.43
2022-08-26T09:19:11.184Z,8.87
2022-08-26T09:21:39.597Z,8.87
2022-08-26T09:24:08.789Z,10.37
2022-08-26T09:26:47.380Z,10.83
2022-08-26T09:29:23.205Z,10.57
2022-08-26T09:32:13.883Z,10.40
2022-08-26T09:34:55.232Z,9.50
2022-08-26T09:37:35.570Z,9.67
2022-08-26T09:40:30.094Z,11.10
2022-08-26T09:43:16.023Z,10.17
2022-08-26T09:45:58.382Z,9.77
2022-08-26T09:48:36.239Z,11.13
2022-08-26T09:51:07.828Z,11.73
2022-08-26T09:53:43.751Z,9.33
2022-08-26T09:56:16.388Z,9.53
2022-08-26T09:58:47.141Z,11.13
2022-08-26T10:01:18.093Z,10.67
2022-08-26T10:03:49.178Z,9.93
2022-08-26T10:06:26.703Z,8.57
2022-08-26T10:08:59.010Z,10.13
2022-08-26T10:11:35.134Z,9.67
2022-08-26T10:14:09.079Z,10.27
2022-08-26T10:16:48.573Z,10.23
2022-08-26T10:19:22.318Z,10.30
2022-08-26T10:21:54.893Z,10.10
2022-08-26T10:24:30.351Z,9.90
2022-08-26T10:27:05.211Z,10.03
2022-08-26T10:29:39.121Z,9.77
2022-08-26T10:32:13.807Z,10.23
2022-08-26T10:34:44.941Z,9.60
2022-08-26T10:37:16.853Z,10.10
2022-08-26T10:39:57.128Z,10.70
2022-08-26T10:42:33.416Z,9.70
2022-08-26T10:45:11.902Z,10.23
2022-08-26T10:47:49.523Z,9.30
2022-08-26T10:50:20.481Z,8.77
2022-08-26T10:52:59.511Z,8.40
2022-08-26T10:55:36.468Z,9.03
2022-08-26T10:58:26.183Z,8.33
2022-08-26T11:01:22.852Z,8.67
2022-08-26T11:04:00.376Z,8.73
2022-08-26T11:06:31.589Z,7.20
2022-08-26T11:09:01.549Z,8.00
2022-08-26T11:11:46.820Z,7.40
2022-08-26T11:14:53.602Z,8.80
2022-08-26T11:17:56.673Z,7.37
2022-08-26T11:20:41.613Z,7.40
2022-08-26T11:23:50.454Z,7.47
2022-08-26T11:26:36.134Z,6.50
2022-08-26T11:29:56.691Z,7.07
2022-08-26T11:32:27.742Z,6.80
2022-08-26T11:34:58.372Z,5.60
2022-08-26T11:37:33.812Z,6.37
2022-08-26T11:40:07.704Z,6.27
2022-08-26T11:42:42.730Z,6.83
2022-08-26T11:45:25.488Z,5.30
2022-08-26T11:47:54.677Z,6.33
2022-08-26T11:50:26.485Z,6.20
2022-08-26T11:52:56.719Z,5.90
2022-08-26T11:55:26.831Z,6.23
2022-08-26T11:57:57.623Z,5.10
2022-08-26T12:00:33.529Z,4.77
2022-08-26T12:03:08.743Z,5.53
2022-08-26T12:05:43.148Z,4.83
2022-08-26T12:08:17.355Z,4.23
2022-08-26T12:10:48.239Z,4.83
2022-08-26T12:13:23.016Z,6.40
2022-08-26T12:15:56.011Z,5.07
2022-08-26T12:18:29.434Z,4.47
2022-08-26T12:21:02.342Z,4.43
2022-08-26T12:23:43.247Z,5.73
2022-08-26T12:26:21.549Z,5.57
2022-08-26T12:28:54.211Z,5.63
2022-08-26T12:31:25.853Z,6.50
2022-08-26T12:33:55.557Z,5.80
2022-08-26T12:36:27.586Z,6.30
2022-08-26T12:38:58.478Z,6.77
2022-08-26T12:41:50.574Z,5.50
2022-08-26T12:44:53.854Z,7.10
2022-08-26T12:47:33.880Z,6.20
2022-08-26T12:50:20.071Z,6.20
2022-08-26T12:53:00.255Z,5.40
2022-08-26T12:55:37.599Z,5.90
2022-08-26T12:58:23.411Z,7.40
2022-08-26T13:00:52.997Z,6.97
2022-08-26T13:03:44.776Z,6.47
2022-08-26T13:06:25.754Z,5.53
2022-08-26T13:08:56.447Z,7.70
2022-08-26T13:11:26.927Z,5.50
2022-08-26T13:14:00.015Z,6.30
2022-08-26T13:16:28.662Z,7.40
2022-08-26T13:18:59.191Z,6.70
2022-08-26T13:21:29.774Z,6.10
2022-08-26T13:24:08.203Z,5.93
2022-08-26T13:26:36.624Z,5.70
2022-08-26T13:29:10.185Z,5.83
2022-08-26T13:31:41.057Z,5.80
2022-08-26T13:34:11.664Z,6.53
2022-08-26T13:36:39.907Z,6.23
2022-08-26T13:39:08.235Z,6.23
2022-08-26T13:41:36.696Z,6.20
2022-08-26T13:44:06.733Z,6.37
2022-08-26T13:46:35.235Z,5.80
2022-08-26T13:49:04.011Z,5.57
2022-08-26T13:51:32.639Z,4.70
2022-08-26T13:54:01.484Z,5.30
2022-08-26T13:56:31.002Z,5.60
2022-08-26T13:59:01.173Z,4.40
2022-08-26T14:01:32.318Z,4.50
2022-08-26T14:04:00.662Z,5.60
2022-08-26T14:06:28.837Z,6.20
2022-08-26T14:08:57.021Z,5.77
2022-08-26T14:11:25.630Z,6.40
2022-08-26T14:13:53.804Z,6.13
2022-08-26T14:16:25.768Z,6.03
2022-08-26T14:18:55.494Z,4.17
2022-08-26T14:21:26.387Z,4.60
2022-08-26T14:23:59.004Z,6.10
2022-08-26T14:26:30.098Z,5.50
2022-08-26T14:28:59.526Z,4.60
2022-08-26T14:31:29.347Z,5.27
2022-08-26T14:34:02.295Z,4.70
2022-08-26T14:36:32.062Z,5.17
2022-08-26T14:39:03.252Z,5.70
2022-08-26T14:41:32.977Z,4.80
2022-08-26T14:44:05.087Z,5.70
2022-08-26T14:46:40.268Z,4.50
2022-08-26T14:49:10.836Z,4.77
2022-08-26T14:51:39.550Z,5.33
2022-08-26T14:54:13.690Z,5.47
2022-08-26T14:56:45.807Z,6.13
2022-08-26T14:59:15.742Z,5.37
2022-08-26T15:01:44.062Z,4.93
2022-08-26T15:04:14.138Z,5.30
2022-08-26T15:06:42.365Z,4.57
2022-08-26T15:09:11.535Z,5.40
2022-08-26T15:11:39.795Z,4.80
2022-08-26T15:14:08.701Z,5.17
2022-08-26T15:16:48.298Z,5.07
2022-08-26T15:19:18.688Z,5.90
2022-08-26T15:21:47.311Z,4.60
2022-08-26T15:24:17.606Z,4.70
2022-08-26T15:26:46.868Z,4.70
2022-08-26T15:29:15.741Z,4.80
2022-08-26T15:31:43.984Z,5.10
2022-08-26T15:34:16.694Z,5.40
2022-08-26T15:36:47.955Z,4.90
2022-08-26T15:39:17.893Z,4.40
2022-08-26T15:41:46.463Z,4.93
2022-08-26T15:44:18.525Z,5.17
2022-08-26T15:46:48.638Z,4.50
2022-08-26T15:49:18.642Z,4.87
2022-08-26T15:51:50.407Z,4.57
2022-08-26T15:54:22.485Z,4.97
2022-08-26T15:56:52.201Z,5.73
2022-08-26T15:59:22.558Z,5.53
2022-08-26T16:01:50.957Z,6.03
2022-08-26T16:04:19.297Z,6.90
2022-08-26T16:06:50.271Z,6.77
2022-08-26T16:09:20.220Z,7.00
2022-08-26T16:11:48.391Z,6.80
2022-08-26T16:14:16.787Z,6.33
2022-08-26T16:16:45.062Z,7.10
2022-08-26T16:19:13.759Z,19.93
2022-08-26T16:21:43.154Z,6.83
2022-08-26T16:24:13.138Z,6.23
2022-08-26T16:26:42.887Z,5.77
2022-08-26T16:29:13.807Z,5.67
2022-08-26T16:31:42.699Z,6.47
2022-08-26T16:34:11.318Z,6.30
2022-08-26T16:36:40.627Z,6.70
2022-08-26T16:39:09.859Z,6.27
2022-08-26T16:41:39.590Z,5.67
2022-08-26T16:44:08.751Z,5.70
2022-08-26T16:46:37.065Z,5.67
2022-08-26T16:49:05.528Z,5.10
2022-08-26T16:51:37.651Z,6.60
2022-08-26T16:54:08.119Z,6.03
2022-08-26T16:56:37.374Z,6.50
2022-08-26T16:59:10.508Z,7.80
2022-08-26T17:01:38.914Z,6.87
2022-08-26T17:04:07.126Z,6.97
2022-08-26T17:06:35.381Z,6.53
2022-08-26T17:09:03.554Z,7.33
2022-08-26T17:11:31.955Z,7.47
2022-08-26T17:14:00.371Z,8.13
2022-08-26T17:16:30.038Z,7.83
2022-08-26T17:18:59.315Z,9.33
2022-08-26T17:21:28.912Z,8.80
2022-08-26T17:23:57.248Z,7.70
2022-08-26T17:26:25.428Z,8.40
2022-08-26T17:28:53.958Z,9.17
2022-08-26T17:31:24.047Z,10.27
2022-08-26T17:33:55.419Z,9.80
2022-08-26T17:36:27.785Z,10.93
2022-08-26T17:38:57.787Z,9.87
2022-08-26T17:41:27.054Z,9.67
2022-08-26T17:43:55.839Z,9.33
2022-08-26T17:46:24.730Z,9.17
2022-08-26T17:48:54.276Z,9.93
2022-08-26T17:51:23.511Z,9.20
2022-08-26T17:53:52.911Z,9.00
2022-08-26T17:56:25.450Z,9.77
2022-08-26T17:58:54.703Z,10.10
2022-08-26T18:01:27.507Z,9.20
2022-08-26T18:04:00.386Z,10.00
2022-08-26T18:06:31.254Z,9.57
2022-08-26T18:08:59.944Z,9.00
2022-08-26T18:11:29.475Z,9.57
2022-08-26T18:13:57.747Z,9.37
2022-08-26T18:16:26.103Z,8.40
2022-08-26T18:18:54.995Z,8.33
2022-08-26T18:21:26.679Z,9.27
2022-08-26T18:23:55.845Z,9.20
2022-08-26T18:26:27.296Z,8.73
2022-08-26T18:28:55.606Z,9.40
2022-08-26T18:31:24.458Z,8.80
2022-08-26T18:33:52.993Z,9.30
2022-08-26T18:36:24.906Z,10.20
2022-08-26T18:38:54.059Z,9.67
2022-08-26T18:41:24.490Z,9.77
2022-08-26T18:43:54.264Z,10.50
2022-08-26T18:46:25.824Z,10.30
2022-08-26T18:48:55.102Z,9.60
2022-08-26T18:51:27.158Z,8.53
2022-08-26T18:53:55.315Z,10.70
2022-08-26T18:56:23.920Z,10.60
2022-08-26T18:58:52.373Z,9.57
2022-08-26T19:01:25.515Z,9.73
2022-08-26T19:03:55.696Z,10.10
2022-08-26T19:06:26.170Z,11.00
2022-08-26T19:08:54.670Z,11.03
2022-08-26T19:11:31.610Z,10.50
2022-08-26T19:14:00.889Z,10.10
2022-08-26T19:16:30.671Z,11.43
2022-08-26T19:19:00.595Z,11.37
2022-08-26T19:21:30.607Z,9.50
2022-08-26T19:23:59.957Z,10.50
2022-08-26T19:26:29.299Z,9.70
2022-08-26T19:28:57.540Z,10.50
2022-08-26T19:31:25.879Z,10.80
2022-08-26T19:33:54.121Z,10.00
2022-08-26T19:36:24.763Z,10.97
2022-08-26T19:38:55.805Z,10.17
2022-08-26T19:41:36.582Z,9.20
2022-08-26T19:44:08.239Z,11.50
2022-08-26T19:49:10.413Z,10.73
2022-08-26T19:51:38.606Z,10.20
2022-08-26T19:54:08.305Z,10.97
2022-08-26T19:56:36.542Z,10.77
2022-08-26T19:59:04.814Z,10.50
2022-08-26T20:01:33.063Z,10.60
2022-08-26T20:04:01.327Z,10.13
2022-08-26T20:06:29.542Z,12.23
2022-08-26T20:08:58.116Z,11.43
2022-08-26T20:11:27.661Z,11.57
2022-08-26T20:13:55.818Z,12.90
2022-08-26T20:16:24.139Z,11.43
2022-08-26T20:19:10.129Z,12.63
2022-08-26T20:21:40.072Z,11.23
2022-08-26T20:24:10.541Z,12.43
2022-08-26T20:26:42.275Z,12.63
2022-08-26T20:29:12.592Z,11.67
2022-08-26T20:31:42.319Z,12.37
2022-08-26T20:34:11.078Z,12.47
2022-08-26T20:36:41.234Z,11.63
2022-08-26T20:39:10.770Z,13.03
2022-08-26T20:41:41.020Z,12.63
2022-08-26T20:44:09.549Z,13.30
2022-08-26T20:46:38.800Z,13.20
2022-08-26T20:49:07.905Z,12.20
2022-08-26T20:51:38.467Z,11.60
2022-08-26T20:54:07.631Z,11.07
2022-08-26T20:56:36.537Z,11.37
2022-08-26T20:59:07.803Z,12.20
2022-08-26T21:01:41.915Z,12.90
2022-08-26T21:04:14.137Z,11.90
2022-08-26T21:06:49.906Z,12.63
2022-08-26T21:09:22.573Z,11.63
2022-08-26T21:11:51.542Z,12.57
2022-08-26T21:14:23.165Z,12.37
2022-08-26T21:16:54.818Z,13.10
2022-08-26T21:19:23.212Z,13.80
2022-08-26T21:21:51.592Z,14.00
2022-08-26T21:24:19.822Z,15.20
2022-08-26T21:26:48.686Z,14.77
2022-08-26T21:29:16.882Z,15.50
2022-08-26T21:31:46.952Z,16.67
2022-08-26T21:34:15.722Z,16.97
2022-08-26T21:36:43.986Z,16.90
2022-08-26T21:39:12.458Z,16.10
2022-08-26T21:41:41.355Z,16.57
2022-08-26T21:44:10.600Z,15.20
2022-08-26T21:46:38.993Z,14.70
2022-08-26T21:49:12.515Z,14.50
2022-08-26T21:51:43.948Z,17.10
2022-08-26T21:54:12.893Z,16.70
2022-08-26T21:56:46.616Z,17.40
2022-08-26T21:59:17.051Z,17.17
2022-08-26T22:01:45.442Z,17.00
2022-08-26T22:04:15.754Z,17.80
2022-08-26T22:06:45.880Z,18.00
2022-08-26T22:09:15.934Z,17.93
2022-08-26T22:11:44.555Z,17.60
2022-08-26T22:14:13.144Z,18.77
2022-08-26T22:16:41.436Z,19.80
2022-08-26T22:19:20.885Z,19.80
2022-08-26T22:21:54.471Z,20.47
2022-08-26T22:24:25.226Z,20.83
2022-08-26T22:26:54.586Z,17.67
2022-08-26T22:29:24.314Z,17.00
2022-08-26T22:31:52.677Z,16.60
2022-08-26T22:34:23.186Z,17.00
2022-08-26T22:36:52.053Z,16.40
2022-08-26T22:39:23.017Z,16.83
2022-08-26T22:41:52.357Z,16.83
2022-08-26T22:44:22.082Z,14.93
2022-08-26T22:46:54.225Z,14.37
2022-08-26T22:49:24.412Z,16.43
2022-08-26T22:51:52.620Z,16.60
2022-08-26T22:54:20.847Z,17.20
2022-08-26T22:56:49.035Z,16.17
2022-08-26T22:59:17.250Z,16.40
2022-08-26T23:01:47.026Z,15.40
2022-08-26T23:04:15.577Z,16.40
2022-08-26T23:06:47.324Z,16.03
2022-08-26T23:09:17.861Z,15.67
2022-08-26T23:11:47.452Z,16.10
2022-08-26T23:14:16.904Z,15.20
2022-08-26T23:16:45.418Z,16.50
2022-08-26T23:19:16.476Z,12.67
2022-08-26T23:21:46.414Z,13.57
2022-08-26T23:24:14.850Z,12.60
2022-08-26T23:26:43.989Z,13.07
2022-08-26T23:29:15.588Z,13.77
2022-08-26T23:31:44.427Z,13.97
2022-08-26T23:34:31.303Z,13.73
2022-08-26T23:37:01.194Z,14.43
2022-08-26T23:39:29.537Z,16.00
2022-08-26T23:41:58.122Z,15.50
2022-08-26T23:44:26.831Z,14.80
2022-08-26T23:46:55.397Z,14.03
2022-08-26T23:49:24.668Z,13.80
2022-08-26T23:52:10.455Z,13.57
2022-08-26T23:54:40.540Z,12.60
2022-08-26T23:57:10.334Z,15.43
2022-08-26T23:59:39.291Z,13.47
